Latest Weather Observations for Argyle

IDW60801

Issued at 5:35 pm WST Monday 20 October 2014 (issued every 30 minutes, with the page automatically refreshed every 10 minutes)

About weather observations | Map of weather stations | Latest weather observations for WA | Other Formats
Station Details ID: 002064 Name: ARGYLE AERODROME Lat: -16.64 Lon: 128.45 Height: 164.0 m
Data from the previous 72 hours. | See also: Recent months at Argyle
Date/Time
WST
Temp
°C
App
Temp
°C
Dew
Point
Rel
Hum
%
Delta-T
°C
Wind Press
QNH
hPa
Press
MSL
hPa
Rain
since 9 am
mm
Dir
 
Spd
km/h
Gust
km/h
Spd
kts
Gust
kts
20/05:30pm 35.1 34.1 10.9 23 14.3 NE 7 9 4 5 1011.7 - 0.0
20/05:00pm 36.0 34.0 10.0 20 15.2 NE 11 15 6 8 1011.4 - 0.0
20/04:30pm 36.4 33.8 9.3 19 15.7 NE 13 22 7 12 1011.2 - 0.0
20/04:00pm 36.9 33.7 10.0 19 15.8 E 17 26 9 14 1010.9 - 0.0
20/03:30pm 37.2 33.9 9.4 18 16.2 NE 17 28 9 15 1010.8 - 0.0
20/03:00pm 37.4 33.6 9.8 18 16.2 NE 20 30 11 16 1010.9 1009.6 0.0
20/02:30pm 37.4 35.2 9.5 18 16.3 NE 11 39 6 21 1011.0 - 0.0
20/02:00pm 38.0 36.0 10.3 19 16.4 ENE 11 22 6 12 1011.3 - 0.0
20/01:30pm 37.8 34.8 10.8 19 16.1 ESE 17 24 9 13 1011.6 - 0.0
20/01:00pm 37.5 34.7 11.3 20 15.7 NNE 17 24 9 13 1012.0 - 0.0
20/12:30pm 36.5 33.7 11.2 21 15.1 NE 17 24 9 13 1012.7 - 0.0
20/12:00pm 37.0 34.7 10.4 20 15.7 NE 13 22 7 12 1013.2 1011.9 0.0
20/11:30am 36.9 33.0 9.4 19 16.0 NNE 20 32 11 17 1013.8 - 0.0
20/11:00am 36.8 32.5 9.2 18 16.0 NNE 22 28 12 15 1014.3 - 0.0
20/10:30am 35.6 32.4 11.2 22 14.5 E 19 26 10 14 1014.8 - 0.0
20/10:00am 35.4 34.7 14.3 28 13.1 E 11 17 6 9 1015.1 - 0.0
20/09:30am 33.9 33.4 15.0 32 11.8 E 11 20 6 11 1015.6 - 0.0
20/09:00am 33.1 32.7 14.0 31 11.7 ESE 9 15 5 8 1016.0 1014.7 0.0
20/08:30am 32.9 33.2 15.0 34 11.1 SE 7 13 4 7 1016.0 - 0.0
20/08:00am 31.4 31.0 14.0 34 10.6 E 9 15 5 8 1016.1 - 0.0
20/07:30am 30.8 30.9 15.5 39 9.5 NE 9 11 5 6 1015.9 - 0.0
20/07:00am 29.8 30.9 15.6 42 8.8 NNW 4 7 2 4 1015.7 - 0.0
20/06:30am 28.4 26.7 11.2 34 9.9 W 11 13 6 7 1015.4 - 0.0
20/06:00am 27.2 25.4 9.6 33 9.8 WNW 9 13 5 7 1015.2 1013.9 0.0
20/05:30am 26.5 25.1 10.8 37 8.9 SSE 9 15 5 8 1014.8 - 0.0
20/05:00am 26.7 23.7 9.4 33 9.6 E 15 37 8 20 1014.2 - 0.0
20/04:30am 27.2 25.2 8.6 31 10.2 S 9 15 5 8 1013.1 - 0.0
20/04:00am 27.9 25.3 7.6 27 11.0 S 11 15 6 8 1012.9 - 0.0
20/03:30am 28.0 26.6 9.4 31 10.4 S 7 13 4 7 1012.7 - 0.0
20/03:00am 27.9 25.8 9.7 32 10.2 WNW 11 13 6 7 1012.5 1011.2 0.0
20/02:30am 27.4 25.4 10.0 33 9.8 WSW 11 13 6 7 1012.4 - 0.0
20/02:00am 27.0 25.3 9.9 34 9.6 WSW 9 11 5 6 1012.4 - 0.0
20/01:30am 27.7 26.0 9.7 32 10.1 W 9 9 5 5 1012.4 - 0.0
20/01:00am 27.4 26.4 10.2 34 9.7 WSW 6 7 3 4 1012.6 - 0.0
20/12:30am 28.2 28.1 9.4 30 10.5 CALM 0 0 0 0 1012.7 - 0.0
20/12:00am 27.5 27.6 10.1 33 9.8 SE 0 0 0 0 1013.0 1011.7 0.0
 
Date/Time
WST
Temp
°C
App
Temp
°C
Dew
Point
Rel
Hum
%
Delta-T
°C
Wind Press
QNH
hPa
Press
MSL
hPa
Rain
since 9 am
mm
Dir
 
Spd
km/h
Gust
km/h
Spd
kts
Gust
kts
19/11:30pm 27.8 27.8 9.8 32 10.1 CALM 0 6 0 3 1013.2 - 0.0
19/11:00pm 29.5 27.2 9.1 28 11.4 N 11 15 6 8 1013.2 - 0.0
19/10:30pm 30.0 27.7 7.5 24 12.3 N 9 13 5 7 1013.3 - 0.0
19/10:00pm 29.9 27.5 5.1 20 13.0 NNW 7 11 4 6 1013.2 - 0.0
19/09:30pm 30.1 26.9 4.9 20 13.2 NNW 11 20 6 11 1013.3 - 0.0
19/09:00pm 31.4 28.7 5.5 19 13.8 WSW 9 11 5 6 1013.3 1012.0 0.0
19/08:30pm 30.9 28.4 6.4 21 13.2 SW 9 11 5 6 1013.1 - 0.0
19/08:00pm 32.0 29.3 5.4 19 14.2 WSW 9 11 5 6 1012.9 - 0.0
19/07:30pm 32.9 30.9 6.9 20 14.3 WSW 7 7 4 4 1012.8 - 0.0
19/07:00pm 33.7 31.3 5.2 17 15.3 WSW 7 9 4 5 1012.5 - 0.0
19/06:30pm 33.9 32.9 5.6 17 15.3 CALM 0 0 0 0 1012.1 - 0.0
19/06:00pm 34.4 33.4 5.7 17 15.6 CALM 0 0 0 0 1011.8 1010.6 0.0
19/05:30pm 35.2 34.7 7.9 18 15.4 CALM 0 0 0 0 1011.5 - 0.0
19/05:00pm 36.2 33.9 5.8 15 16.7 N 7 11 4 6 1011.3 - 0.0
19/04:30pm 36.4 33.6 5.2 14 17.0 N 9 13 5 7 1011.0 - 0.0
19/04:00pm 36.6 33.7 4.6 14 17.3 N 9 13 5 7 1010.8 - 0.0
19/03:30pm 36.7 33.4 4.8 14 17.3 NNE 11 19 6 10 1010.8 - 0.0
19/03:00pm 37.1 34.0 5.4 14 17.4 NE 11 22 6 12 1010.9 1009.6 0.0
19/02:30pm 36.2 32.5 4.4 14 17.1 N 13 19 7 10 1011.1 - 0.0
19/02:00pm 36.7 32.0 5.9 15 17.0 NNE 20 33 11 18 1011.3 - 0.0
19/01:30pm 37.4 32.8 6.7 15 17.2 NNE 20 37 11 20 1011.7 - 0.0
19/01:00pm 37.3 32.4 7.1 15 17.0 NE 22 35 12 19 1012.1 - 0.0
19/12:30pm 36.3 30.9 6.3 15 16.6 NE 24 39 13 21 1012.5 - 0.0
19/12:00pm 37.2 31.6 3.7 12 17.9 NE 22 41 12 22 1012.9 1011.6 0.0
19/11:30am 37.4 31.7 2.6 11 18.3 ENE 22 33 12 18 1013.4 - 0.0
19/11:00am 35.8 29.4 3.4 13 17.1 NE 26 39 14 21 1013.8 - 0.0
19/10:30am 35.7 31.1 3.5 13 17.0 ENE 17 26 9 14 1014.3 - 0.0
19/10:00am 34.3 27.9 1.2 12 16.7 ENE 24 30 13 16 1014.9 - 0.0
19/09:30am 34.2 28.6 1.0 12 16.7 NE 20 28 11 15 1015.3 - 0.0
19/09:00am 33.3 28.2 -2.0 10 16.8 ENE 15 26 8 14 1015.5 1014.2 0.0
19/08:30am 32.4 27.1 -7.5 7 17.2 NE 13 22 7 12 1015.6 - 0.0
19/08:00am 32.0 26.0 -7.1 7 16.9 E 17 26 9 14 1015.6 - 0.0
19/07:30am 30.9 27.3 -3.6 10 15.7 E 6 9 3 5 1015.5 - 0.0
19/07:00am 29.8 26.8 -2.2 12 14.8 SSE 4 7 2 4 1015.2 - 0.0
19/06:30am 27.7 24.2 -3.2 13 13.8 S 6 7 3 4 1015.0 - 0.0
19/06:00am 26.0 22.1 -4.9 12 13.2 SSE 7 11 4 6 1014.6 1013.3 0.0
19/05:30am 25.5 20.0 -9.7 9 13.7 S 13 19 7 10 1014.2 - 0.0
19/05:00am 23.8 18.7 -9.7 10 12.8 S 11 20 6 11 1014.0 - 0.0
19/04:30am 23.3 19.6 -4.1 16 11.6 SSW 6 9 3 5 1013.6 - 0.0
19/04:00am 25.8 20.9 -6.6 11 13.4 SSW 11 15 6 8 1013.3 - 0.0
19/03:30am 24.0 20.3 -4.2 15 12.0 SSE 6 9 3 5 1013.1 - 0.0
19/03:00am 23.5 19.1 -5.6 14 12.0 SW 9 11 5 6 1013.0 1011.7 0.0
19/02:30am 24.8 21.1 -3.1 15 12.2 S 7 11 4 6 1012.8 - 0.0
19/02:00am 24.2 19.5 -5.2 14 12.3 WNW 11 11 6 6 1012.6 - 0.0
19/01:30am 24.0 18.6 -8.2 11 12.7 W 13 13 7 7 1012.5 - 0.0
19/01:00am 23.2 17.8 -9.0 11 12.4 WSW 13 15 7 8 1012.6 - 0.0
19/12:30am 24.7 21.5 -3.4 15 12.2 N 4 7 2 4 1012.9 - 0.0
19/12:00am 23.7 19.0 -8.6 11 12.6 E 9 17 5 9 1013.1 1011.8 0.0
 
Date/Time
WST
Temp
°C
App
Temp
°C
Dew
Point
Rel
Hum
%
Delta-T
°C
Wind Press
QNH
hPa
Press
MSL
hPa
Rain
since 9 am
mm
Dir
 
Spd
km/h
Gust
km/h
Spd
kts
Gust
kts
18/11:30pm 27.1 22.5 -12.5 6 14.9 NNW 7 11 4 6 1012.8 - 0.0
18/11:00pm 26.1 20.9 -10.3 8 14.1 N 11 15 6 8 1012.9 - 0.0
18/10:30pm 27.8 23.5 -4.9 11 14.2 SW 9 11 5 6 1013.0 - 0.0
18/10:00pm 27.3 22.8 -6.5 10 14.2 W 9 9 5 5 1013.1 - 0.0
18/09:30pm 28.1 23.0 -9.0 8 15.0 SW 11 11 6 6 1013.3 - 0.0
18/09:00pm 30.1 24.9 -11.3 6 16.4 SW 11 11 6 6 1013.3 1012.0 0.0
18/08:30pm 29.9 25.9 -5.7 9 15.5 SSW 7 9 4 5 1013.2 - 0.0
18/08:00pm 30.7 25.9 -11.0 6 16.7 W 9 9 5 5 1013.0 - 0.0
18/07:30pm 30.3 25.5 -10.3 6 16.4 W 9 11 5 6 1012.8 - 0.0
18/07:00pm 30.4 25.6 -9.9 7 16.4 WNW 9 9 5 5 1012.6 - 0.0
18/06:30pm 32.1 27.2 -12.0 5 17.6 N 9 11 5 6 1012.2 - 0.0
18/06:00pm 32.8 27.9 -12.0 5 18.0 N 9 11 5 6 1012.0 1010.8 0.0
18/05:30pm 34.0 29.0 -13.0 4 18.8 N 9 13 5 7 1011.7 - 0.0
18/05:00pm 35.6 30.6 -13.8 4 19.8 ENE 9 13 5 7 1011.5 - 0.0
18/04:30pm 36.5 31.2 -20.5 2 20.8 ENE 9 15 5 8 1011.1 - 0.0
18/04:00pm 36.9 31.2 -19.8 2 21.0 NE 11 17 6 9 1010.9 - 0.0
18/03:30pm 37.0 31.8 -17.3 2 20.9 NE 9 20 5 11 1010.7 - 0.0
18/03:00pm 37.2 31.6 -18.5 2 21.1 NNE 11 20 6 11 1010.8 1009.5 0.0
18/02:30pm 36.8 31.0 -14.9 3 20.6 E 13 22 7 12 1011.1 - 0.0
18/02:00pm 37.3 32.6 -15.0 3 20.9 NW 7 15 4 8 1011.3 - 0.0
18/01:30pm 36.8 32.0 -16.2 3 20.7 SSE 7 17 4 9 1011.6 - 0.0
18/01:00pm 36.7 29.2 -22.3 2 21.0 ENE 20 30 11 16 1012.0 - 0.0
18/12:30pm 36.3 30.1 -25.5 1 20.9 NNE 13 20 7 11 1012.4 - 0.0
18/12:00pm 37.0 31.3 -20.9 2 21.1 NNE 11 24 6 13 1012.9 1011.6 0.0
18/11:30am 36.6 29.1 -23.9 1 21.0 E 20 32 11 17 1013.5 - 0.0
18/11:00am 36.2 29.3 -22.5 2 20.7 ENE 17 28 9 15 1014.2 - 0.0
18/10:30am 35.3 27.8 -23.0 2 20.2 E 20 33 11 18 1014.8 - 0.0
18/10:00am 35.4 28.0 -20.0 2 20.1 ENE 20 26 11 14 1015.3 - 0.0
18/09:30am 34.3 26.6 -17.4 3 19.3 E 22 30 12 16 1015.9 - 0.0
18/09:00am 33.2 26.6 -15.2 4 18.5 NE 17 28 9 15 1016.4 1015.1 0.0
18/08:30am 32.0 25.8 -13.8 4 17.7 E 15 24 8 13 1016.6 - 0.0
18/08:00am 31.1 24.9 -15.0 4 17.3 E 15 22 8 12 1016.7 - 0.0
18/07:30am 29.8 24.9 -12.1 6 16.3 NE 9 13 5 7 1016.5 - 0.0
18/07:00am 28.0 24.4 -7.4 9 14.7 WNW 4 7 2 4 1016.6 - 0.0
18/06:30am 26.2 21.8 -10.8 8 14.2 W 7 9 4 5 1016.2 - 0.0
18/06:00am 24.7 21.3 -10.0 9 13.3 NNE 2 6 1 3 1015.8 1014.5 0.0
18/05:30am 23.4 19.7 -8.4 11 12.4 NE 4 7 2 4 1015.5 - 0.0
18/05:00am 21.6 18.8 -6.7 14 11.2 CALM 0 0 0 0 1015.1 - 0.0
18/04:30am 23.0 19.3 -3.0 17 11.2 E 7 9 4 5 1014.8 - 0.0
18/04:00am 22.8 19.9 -4.4 16 11.4 NW 2 6 1 3 1014.6 - 0.0
18/03:30am 22.4 18.3 -6.6 14 11.6 W 7 7 4 4 1014.3 - 0.0
18/03:00am 23.7 20.8 -8.6 11 12.6 CALM 0 0 0 0 1014.0 1012.7 0.0
18/02:30am 23.8 20.6 -7.0 12 12.4 N 2 7 1 4 1013.8 - 0.0
18/02:00am 24.3 21.5 -6.7 12 12.6 CALM 0 0 0 0 1013.7 - 0.0
18/01:30am 23.8 20.0 -5.9 13 12.2 NW 6 6 3 3 1013.7 - 0.0
18/01:00am 25.9 22.5 -5.2 12 13.2 WNW 4 6 2 3 1013.7 - 0.0
18/12:30am 25.2 21.0 -8.1 10 13.3 W 7 9 4 5 1014.0 - 0.0
18/12:00am 24.0 19.8 -3.8 15 11.9 W 9 11 5 6 1014.2 1012.9 0.0
 
Date/Time
WST
Temp
°C
App
Temp
°C
Dew
Point
Rel
Hum
%
Delta-T
°C
Wind Press
QNH
hPa
Press
MSL
hPa
Rain
since 9 am
mm
Dir
 
Spd
km/h
Gust
km/h
Spd
kts
Gust
kts
17/11:30pm 24.3 20.1 -3.5 15 12.0 W 9 9 5 5 1014.3 - 0.0
17/11:00pm 25.8 21.6 -3.9 14 12.9 ESE 9 11 5 6 1014.4 - 0.0
17/10:30pm 25.7 21.4 -1.8 16 12.4 SE 11 13 6 7 1014.4 - 0.0
17/10:00pm 25.4 21.8 0.5 19 11.7 ESE 9 11 5 6 1014.6 - 0.0
17/09:30pm 25.2 21.2 0.4 19 11.6 SE 11 13 6 7 1014.6 - 0.0
17/09:00pm 26.7 22.4 -4.5 12 13.5 SE 9 11 5 6 1014.3 1013.0 0.0
17/08:30pm 27.3 23.4 -4.8 12 13.9 SE 7 9 4 5 1014.1 - 0.0
17/08:00pm 28.0 23.8 -8.0 9 14.8 ESE 7 9 4 5 1013.9 - 0.0
17/07:30pm 30.5 26.5 -5.4 9 15.8 SE 7 9 4 5 1013.6 - 0.0
17/07:00pm 30.0 26.1 -4.7 10 15.4 SE 7 7 4 4 1013.4 - 0.0
17/06:30pm 31.4 26.1 -12.9 5 17.3 NNE 11 13 6 7 1012.9 - 0.0
17/06:00pm 31.8 26.4 -13.7 4 17.6 NNE 11 13 6 7 1012.6 1011.3 0.0

Other Formats:

Comma delimited format used in spreadsheet applications
http://www.bom.gov.au/fwo/IDW60801/IDW60801.94217.axf

JavaScript Object Notation format (JSON) in row-major order
http://www.bom.gov.au/fwo/IDW60801/IDW60801.94217.json